Latest Weather Observations for Norseman Airport

IDW60801

Issued at 9:05 pm WST Tuesday 21 October 2014 (issued every 30 minutes, with the page automatically refreshed every 10 minutes)

About weather observations | Map of weather stations | Latest weather observations for WA | Other Formats
Station Details ID: 012009 Name: NORSEMAN AERO Lat: -32.21 Lon: 121.75 Height: 262.5 m
Data from the previous 72 hours. | See also: Recent months at Norseman Airport
Date/Time
WST
Temp
°C
App
Temp
°C
Dew
Point
Rel
Hum
%
Delta-T
°C
Wind Press
QNH
hPa
Press
MSL
hPa
Rain
since 9 am
mm
Dir
 
Spd
km/h
Gust
km/h
Spd
kts
Gust
kts
21/09:00pm 16.3 14.0 13.0 81 1.9 SSE 17 30 9 16 1023.6 1023.0 0.0
21/08:30pm 17.0 14.8 13.3 79 2.1 SSE 17 24 9 13 1023.5 1022.9 0.0
21/08:00pm 17.9 15.3 13.2 74 2.7 SSE 19 22 10 12 1023.2 1022.6 0.0
21/07:30pm 18.9 17.2 12.4 66 3.7 SSE 13 20 7 11 1022.8 1022.3 0.0
21/07:00pm 19.2 17.9 12.5 65 3.8 S 11 17 6 9 1022.4 1021.9 0.0
21/06:30pm 19.7 18.4 12.5 63 4.1 S 11 17 6 9 1021.9 1021.4 0.0
21/06:00pm 20.7 18.9 12.1 58 4.9 S 13 19 7 10 1021.7 1021.2 0.0
21/05:30pm 21.7 20.0 12.3 55 5.4 SSE 13 20 7 11 1021.3 1020.8 0.0
21/05:00pm 22.0 20.3 12.3 54 5.5 SSE 13 19 7 10 1021.1 1020.6 0.0
21/04:30pm 22.4 20.4 12.6 54 5.6 S 15 22 8 12 1021.0 1020.5 0.0
21/04:00pm 22.6 20.5 12.5 53 5.8 SSE 15 24 8 13 1020.7 1020.1 0.0
21/03:30pm 22.6 20.9 12.3 52 5.9 SE 13 24 7 13 1020.5 1019.9 0.0
21/03:00pm 23.1 21.5 12.7 52 6.0 SSE 13 22 7 12 1020.4 1019.8 0.0
21/02:30pm 23.0 21.4 12.9 53 5.9 SE 13 24 7 13 1020.6 1020.0 0.0
21/02:00pm 22.8 22.1 13.3 55 5.5 SSW 9 19 5 10 1020.8 1020.2 0.0
21/01:30pm 22.5 21.2 12.4 52 5.8 SE 11 24 6 13 1021.0 1020.5 0.0
21/01:00pm 22.4 22.0 14.0 59 4.9 S 9 17 5 9 1021.3 1020.8 0.0
21/12:30pm 21.6 19.0 13.8 61 4.6 SW 20 26 11 14 1021.3 1020.8 0.0
21/12:00pm 20.8 20.0 12.8 60 4.6 S 9 19 5 10 1021.6 1021.1 0.0
21/11:30am 19.6 17.7 11.9 61 4.3 SSW 13 20 7 11 1022.0 1021.5 0.0
21/11:00am 19.3 17.6 12.3 64 3.9 SSE 13 20 7 11 1022.2 1021.7 0.0
21/10:30am 18.4 17.0 12.2 67 3.5 SW 11 19 6 10 1022.6 1022.1 0.0
21/10:00am 18.2 17.5 13.1 72 2.9 SW 9 17 5 9 1022.7 1022.2 0.0
21/09:30am 16.7 15.7 12.3 75 2.5 S 9 19 5 10 1022.8 1022.3 0.0
21/09:00am 15.7 15.2 12.5 81 1.8 WNW 7 11 4 6 1022.8 1022.3 0.0
21/08:30am 14.9 14.1 12.8 87 1.2 SSW 9 13 5 7 1022.8 1022.3 0.0
21/08:00am 14.5 13.5 12.4 87 1.2 S 9 13 5 7 1022.6 1022.1 0.0
21/07:30am 13.3 11.5 12.2 93 0.6 SSW 13 19 7 10 1022.3 1021.8 0.0
21/07:00am 13.3 12.0 12.4 94 0.5 SSW 11 20 6 11 1021.7 1021.2 0.0
21/06:30am 12.7 10.9 12.1 96 0.3 SSW 13 19 7 10 1021.1 1020.6 0.0
21/06:00am 12.9 11.6 12.6 98 0.2 SSW 11 15 6 8 1020.8 1020.2 0.0
21/05:30am 12.6 10.1 12.4 99 0.1 SSW 17 20 9 11 1020.4 1019.8 0.0
21/05:00am 12.6 10.1 12.4 99 0.1 SSW 17 24 9 13 1020.0 1019.4 0.0
21/04:30am 12.3 11.2 12.1 99 0.1 SW 9 17 5 9 1019.8 1019.2 0.0
21/04:00am 11.9 10.7 11.7 99 0.1 SSW 9 13 5 7 1019.3 1018.7 0.0
21/03:30am 12.0 10.5 11.8 99 0.1 SW 11 15 6 8 1018.9 1018.4 0.0
21/03:00am 12.8 10.0 12.6 99 0.1 SW 19 24 10 13 1018.6 1018.1 0.0
21/02:30am 12.3 11.2 12.1 99 0.1 SW 9 11 5 6 1018.7 1018.2 0.0
21/02:00am 12.6 11.6 12.4 99 0.1 SSW 9 11 5 6 1018.6 1018.1 0.0
21/01:30am 13.1 12.7 12.9 99 0.1 SSW 7 9 4 5 1018.3 1017.8 0.0
21/01:00am 13.5 14.4 13.0 97 0.3 CALM 0 4 0 2 1018.2 1017.7 0.0
21/12:30am 13.6 12.8 12.8 95 0.4 WSW 9 11 5 6 1018.3 1017.8 0.0
21/12:00am 14.7 12.5 13.2 91 0.8 SW 17 22 9 12 1018.4 1017.9 0.0
 
Date/Time
WST
Temp
°C
App
Temp
°C
Dew
Point
Rel
Hum
%
Delta-T
°C
Wind Press
QNH
hPa
Press
MSL
hPa
Rain
since 9 am
mm
Dir
 
Spd
km/h
Gust
km/h
Spd
kts
Gust
kts
20/11:30pm 14.7 13.9 11.7 82 1.6 SSW 7 9 4 5 1018.5 1018.0 0.0
20/11:00pm 14.5 14.4 12.0 85 1.4 W 4 7 2 4 1018.7 1018.2 0.0
20/10:30pm 13.3 13.6 11.0 86 1.2 CALM 0 6 0 3 1018.5 1018.0 0.0
20/10:00pm 14.2 13.3 10.8 80 1.8 S 6 7 3 4 1018.3 1017.8 0.0
20/09:30pm 14.8 13.4 10.8 77 2.1 SSW 9 13 5 7 1018.3 1017.8 0.0
20/09:00pm 15.6 13.8 11.0 74 2.5 WSW 11 15 6 8 1018.5 1018.0 0.0
20/08:30pm 16.1 14.5 11.5 74 2.5 WNW 11 15 6 8 1018.4 1017.9 0.0
20/08:00pm 16.6 14.6 11.5 72 2.8 W 13 19 7 10 1018.0 1017.5 0.0
20/07:30pm 17.3 14.0 11.6 69 3.1 W 20 26 11 14 1017.7 1017.2 0.0
20/07:00pm 17.6 14.3 11.6 68 3.3 W 20 26 11 14 1017.1 1016.5 0.0
20/06:30pm 18.1 14.9 11.9 67 3.5 W 20 28 11 15 1016.7 1016.1 0.0
20/06:00pm 19.0 14.2 11.6 62 4.1 W 28 35 15 19 1016.0 1015.4 0.0
20/05:30pm 20.5 15.6 11.2 55 5.2 W 28 35 15 19 1015.3 1014.7 0.0
20/05:00pm 20.7 16.1 11.1 54 5.3 W 26 37 14 20 1014.7 1014.2 0.0
20/04:30pm 20.7 15.7 11.1 54 5.3 W 28 35 15 19 1014.5 1014.0 0.0
20/04:00pm 21.2 17.1 11.5 54 5.4 WNW 24 35 13 19 1014.2 1013.6 0.0
20/03:30pm 20.9 16.1 11.5 55 5.3 WNW 28 41 15 22 1013.9 1013.3 0.0
20/03:01pm 21.6 16.7 11.3 52 5.8 WNW 28 46 15 25 1013.7 1013.1 0.0
20/03:00pm 21.7 17.1 11.1 51 5.9 WNW 26 43 14 23 1013.7 1013.1 0.0
20/02:30pm 21.3 16.8 11.3 53 5.6 WNW 26 37 14 20 1013.7 1013.1 0.0
20/02:00pm 22.0 17.3 12.0 53 5.7 NW 28 44 15 24 1013.6 1013.0 0.0
20/01:30pm 21.3 17.1 12.4 57 5.1 WNW 26 33 14 18 1013.6 1013.0 0.0
20/01:00pm 20.8 15.6 11.7 56 5.1 WNW 30 39 16 21 1013.8 1013.2 0.0
20/12:30pm 20.7 15.3 12.1 58 4.9 WNW 32 39 17 21 1013.9 1013.3 0.0
20/12:00pm 20.2 15.6 12.2 60 4.5 NW 28 44 15 24 1013.8 1013.2 0.0
20/11:44am 19.8 14.5 11.3 58 4.7 WNW 30 48 16 26 1013.9 1013.3 0.0
20/11:30am 19.8 15.0 13.0 65 3.9 NW 30 39 16 21 1013.9 1013.3 0.0
20/11:00am 19.6 14.7 12.6 64 4.0 NW 30 41 16 22 1014.0 1013.4 0.0
20/10:30am 18.3 13.4 12.5 69 3.3 WNW 30 41 16 22 1014.2 1013.6 0.0
20/10:00am 18.6 14.2 12.8 69 3.3 WNW 28 37 15 20 1014.4 1013.9 0.0
20/09:30am 17.4 12.4 12.1 71 3.0 NW 30 39 16 21 1014.5 1014.0 0.0
20/09:00am 17.4 13.1 13.3 77 2.3 NNW 28 37 15 20 1014.5 1014.0 26.4
20/08:30am 15.9 14.1 15.9 100 0.0 N 20 24 11 13 1014.5 1014.0 26.4
20/08:00am 14.4 12.0 14.4 100 0.0 N 20 24 11 13 1014.6 1014.1 26.4
20/07:30am 14.5 12.3 14.5 100 0.0 N 19 24 10 13 1014.7 1014.2 26.4
20/07:00am 13.8 11.4 13.8 100 0.0 N 19 24 10 13 1014.7 1014.2 26.4
20/06:30am 13.3 11.9 13.3 100 0.0 N 13 19 7 10 1014.6 1014.1 26.4
20/06:00am 13.0 12.2 13.0 100 0.0 N 9 13 5 7 1014.3 1013.8 26.4
20/05:30am 12.4 10.3 12.4 100 0.0 N 15 15 8 8 1013.9 1013.3 26.4
20/05:00am 12.9 10.6 12.9 100 0.0 N 17 20 9 11 1013.7 1013.1 26.4
20/04:30am 12.7 10.7 12.7 100 0.0 N 15 17 8 9 1013.5 1012.9 26.4
20/04:00am 12.8 9.9 12.8 100 0.0 N 20 24 11 13 1013.2 1012.6 26.4
20/03:30am 13.0 10.3 13.0 100 0.0 N 19 22 10 12 1013.1 1012.5 26.4
20/03:00am 13.0 11.1 13.0 100 0.0 N 15 19 8 10 1013.1 1012.5 26.4
20/02:30am 12.6 10.9 12.6 100 0.0 N 13 15 7 8 1013.1 1012.5 26.4
20/02:00am 11.7 9.4 11.7 100 0.0 N 15 17 8 9 1012.8 1012.2 26.4
20/01:30am 11.9 10.4 11.9 100 0.0 N 11 13 6 7 1012.9 1012.3 26.4
20/01:00am 11.7 10.5 11.7 100 0.0 NNE 9 11 5 6 1013.1 1012.5 26.4
20/12:30am 12.4 11.4 12.4 100 0.0 NNE 9 13 5 7 1012.9 1012.3 26.4
20/12:00am 12.8 11.6 12.8 100 0.0 NE 11 15 6 8 1013.2 1012.6 26.4
 
Date/Time
WST
Temp
°C
App
Temp
°C
Dew
Point
Rel
Hum
%
Delta-T
°C
Wind Press
QNH
hPa
Press
MSL
hPa
Rain
since 9 am
mm
Dir
 
Spd
km/h
Gust
km/h
Spd
kts
Gust
kts
19/11:30pm 13.1 11.2 13.1 100 0.0 NNE 15 17 8 9 1013.5 1012.9 26.4
19/11:00pm 13.5 12.1 13.5 100 0.0 NE 13 17 7 9 1013.7 1013.1 26.4
19/10:30pm 13.8 11.8 13.8 100 0.0 NE 17 20 9 11 1014.0 1013.4 26.4
19/10:00pm 13.7 11.6 13.7 100 0.0 NE 17 24 9 13 1013.9 1013.3 26.4
19/09:30pm 13.7 12.8 13.7 100 0.0 NE 11 15 6 8 1014.4 1013.9 26.4
19/09:00pm 13.6 12.7 13.6 100 0.0 NE 11 17 6 9 1014.3 1013.8 26.4
19/08:30pm 13.6 11.1 13.6 100 0.0 N 19 24 10 13 1014.0 1013.4 26.4
19/08:00pm 13.5 11.0 13.5 100 0.0 N 19 32 10 17 1013.6 1013.0 26.4
19/07:50pm 13.5 12.1 13.5 100 0.0 NNE 13 32 7 17 1013.5 1012.9 26.4
19/07:46pm 13.4 10.9 13.4 100 0.0 ESE 19 20 10 11 1011.4 1010.8 26.4
19/07:30pm 13.5 12.9 13.5 100 0.0 NE 9 20 5 11 1013.4 1012.8 26.2
19/07:00pm 13.6 11.1 13.6 100 0.0 N 19 28 10 15 1014.0 1013.4 26.2
19/06:59pm 13.6 11.1 13.6 100 0.0 N 19 28 10 15 1013.8 1013.2 26.2
19/06:30pm 13.1 11.2 13.1 100 0.0 ESE 15 24 8 13 1011.8 1011.2 26.2
19/06:00pm 12.9 9.6 12.9 100 0.0 E 22 30 12 16 1012.6 1012.0 25.8
19/05:30pm 12.7 11.1 12.7 100 0.0 ENE 13 22 7 12 1012.4 1011.8 25.6
19/05:00pm 12.4 9.5 12.4 100 0.0 E 19 28 10 15 1012.5 1011.9 25.4
19/04:30pm 12.3 9.8 12.3 100 0.0 E 17 26 9 14 1012.4 1011.8 24.0
19/04:00pm 13.0 10.7 13.0 100 0.0 ENE 17 20 9 11 1012.2 1011.6 22.6
19/03:30pm 12.2 11.7 12.2 100 0.0 ESE 6 9 3 5 1011.7 1011.1 21.2
19/03:00pm 11.8 8.2 11.8 100 0.0 SW 22 32 12 17 1011.6 1011.0 19.8
19/02:47pm 10.4 4.5 10.4 100 0.0 WSW 32 35 17 19 1012.0 1011.4 18.6
19/02:45pm 10.4 1.8 10.2 99 0.1 W 46 65 25 35 1012.7 1012.1 17.2
19/02:44pm 10.5 0.8 10.3 99 0.1 WNW 52 65 28 35 1013.1 1012.5 16.2
19/02:41pm 12.2 -2.4 12.0 99 0.1 WNW 80 106 43 57 1013.1 1012.5 7.4
19/02:39pm 14.0 0.5 13.1 94 0.5 NW 76 93 41 50 1012.8 1012.2 3.8
19/02:37pm 15.4 7.0 14.6 95 0.5 NNW 52 76 28 41 1012.2 1011.6 3.4
19/02:30pm 17.3 17.3 17.3 100 0.0 E 13 20 7 11 1009.7 1009.1 3.4
19/02:00pm 16.8 16.6 16.6 99 0.1 SE 13 17 7 9 1010.0 1009.4 3.4
19/01:30pm 16.5 17.5 16.3 99 0.1 NW 6 9 3 5 1011.3 1010.7 3.2
19/01:00pm 16.7 17.2 16.5 99 0.1 E 9 13 5 7 1011.2 1010.6 2.6
19/12:30pm 16.2 16.0 15.7 97 0.3 S 11 15 6 8 1011.9 1011.3 1.4
19/12:00pm 17.2 14.1 15.7 91 0.9 W 26 32 14 17 1012.2 1011.6 1.4
19/11:54am 18.3 15.7 15.9 86 1.4 W 24 30 13 16 1012.0 1011.4 1.4
19/11:47am 18.7 13.5 15.6 82 1.9 N 37 44 20 24 1011.9 1011.3 1.4
19/11:46am 19.0 15.6 15.9 82 1.9 NNE 28 46 15 25 1011.9 1011.3 1.4
19/11:30am 20.3 16.6 15.1 72 3.1 NE 28 44 15 24 1011.6 1011.0 0.0
19/11:00am 20.2 17.4 15.4 74 2.9 NNE 24 33 13 18 1012.1 1011.5 0.0
19/10:30am 20.1 17.1 15.9 77 2.5 NNE 26 35 14 19 1012.6 1012.0 0.0
19/10:00am 19.8 18.3 16.8 83 1.8 NE 20 32 11 17 1013.1 1012.5 0.0
19/09:30am 18.6 17.4 17.6 94 0.6 ENE 20 26 11 14 1013.1 1012.5 0.0
19/09:00am 17.2 15.9 17.2 100 0.0 ENE 20 26 11 14 1013.3 1012.7 43.8
19/08:30am 16.8 16.3 16.8 100 0.0 E 15 19 8 10 1013.7 1013.1 43.8
19/08:00am 15.2 14.4 15.2 100 0.0 ESE 13 20 7 11 1013.5 1012.9 43.8
19/07:30am 14.6 12.9 14.6 100 0.0 ENE 17 20 9 11 1014.5 1014.0 43.2
19/07:00am 14.0 14.1 14.0 100 0.0 WNW 6 7 3 4 1015.2 1014.6 40.4
19/06:30am 13.6 13.6 13.6 100 0.0 E 6 9 3 5 1014.8 1014.3 39.8
19/06:00am 13.4 12.4 13.4 100 0.0 ESE 11 17 6 9 1014.7 1014.2 39.8
19/05:30am 13.2 12.9 13.2 100 0.0 SE 7 11 4 6 1013.9 1013.3 39.8
19/05:00am 13.0 11.9 13.0 100 0.0 S 11 17 6 9 1012.7 1012.1 39.8
19/04:30am 12.9 11.3 12.9 100 0.0 SSW 13 19 7 10 1013.2 1012.6 39.6
19/04:00am 13.0 11.9 13.0 100 0.0 SSW 11 15 6 8 1013.8 1013.2 39.6
19/03:30am 12.8 12.5 12.8 100 0.0 SSE 6 13 3 7 1014.3 1013.8 39.6
19/03:00am 12.8 12.5 12.8 100 0.0 SE 6 17 3 9 1014.9 1014.4 38.2
19/02:30am 12.8 12.0 12.8 100 0.0 S 9 17 5 9 1015.6 1015.0 35.2
19/02:00am 12.7 11.5 12.7 100 0.0 S 11 20 6 11 1015.2 1014.6 31.2
19/01:30am 12.7 11.1 12.7 100 0.0 S 13 22 7 12 1015.3 1014.7 27.8
19/01:00am 12.7 11.5 12.7 100 0.0 S 11 17 6 9 1015.5 1014.9 26.8
19/12:30am 12.7 11.1 12.7 100 0.0 S 13 20 7 11 1015.6 1015.0 26.8
19/12:00am 12.6 10.6 12.6 100 0.0 SSE 15 20 8 11 1015.8 1015.2 26.8
 
Date/Time
WST
Temp
°C
App
Temp
°C
Dew
Point
Rel
Hum
%
Delta-T
°C
Wind Press
QNH
hPa
Press
MSL
hPa
Rain
since 9 am
mm
Dir
 
Spd
km/h
Gust
km/h
Spd
kts
Gust
kts
18/11:30pm 12.6 9.8 12.6 100 0.0 SSE 19 26 10 14 1016.0 1015.4 26.8
18/11:00pm 12.7 11.1 12.7 100 0.0 SSE 13 19 7 10 1016.2 1015.6 26.8
18/10:30pm 12.8 10.8 12.8 100 0.0 SSE 15 24 8 13 1015.8 1015.2 26.8
18/10:00pm 12.8 9.9 12.8 100 0.0 SSE 20 32 11 17 1015.6 1015.0 26.8
18/09:30pm 12.9 10.0 12.9 100 0.0 S 20 30 11 16 1015.8 1015.2 26.8

Other Formats:

Comma delimited format used in spreadsheet applications
http://www.bom.gov.au/fwo/IDW60801/IDW60801.95642.axf

JavaScript Object Notation format (JSON) in row-major order
http://www.bom.gov.au/fwo/IDW60801/IDW60801.95642.json